Time;durP1;ratioP1;P1;durP2;ratioP2;P2;SDS_P1;SDS_P2;PMS_P1;PMS_P2;Temp;Humidity;BMP_temperature;BMP_pressure;BME280_temperature;BME280_humidity;BME280_pressure;Samples;Min_cycle;Max_cycle;Signal;HPM_P1;HPM_P2
2022/09/10 00:01:15;;;;;;;;;;;;;;;22.61;57.28;100667.84;5024984;28;4202;-52
2022/09/10 00:03:42;;;;;;;;;;;;;;;22.61;57.57;100670.72;5014382;28;5279;-48
2022/09/10 00:06:08;;;;;;;;;;;;;;;22.61;57.24;100675.75;5012276;28;4282;-50
2022/09/10 00:08:35;;;;;;;;;;;;;;;22.61;57.15;100678.63;5016960;28;4422;-51
2022/09/10 00:11:02;;;;;;;;;;;;;;;22.59;57.24;100671.38;5014970;28;5486;-50
2022/09/10 00:13:29;;;;;;;;;;;;;;;22.61;57.49;100681.50;5016180;28;4345;-50
2022/09/10 00:15:55;;;;;;;;;;;;;;;22.59;57.13;100674.28;5016419;28;4507;-52
2022/09/10 00:18:22;;;;;;;;;;;;;;;22.59;57.44;100676.44;5017242;28;5082;-53
2022/09/10 00:20:51;;;;;;;;;;;;;;;22.59;57.23;100664.88;5014133;28;4019;-61
2022/09/10 00:23:18;;;;;;;;;;;;;;;22.58;57.04;100655.47;5010207;28;4249;-48
2022/09/10 00:25:44;;;;;;;;;;;;;;;22.57;57.54;100659.78;5015728;28;4199;-49
2022/09/10 00:28:11;;;;;;;;;;;;;;;22.58;57.20;100652.59;5015850;28;5462;-49
2022/09/10 00:30:40;;;;;;;;;;;;;;;22.55;57.43;100645.28;5014531;28;4053;-47
2022/09/10 00:33:07;;;;;;;;;;;;;;;22.57;57.21;100653.28;5016558;28;4188;-52
2022/09/10 00:35:33;;;;;;;;;;;;;;;22.56;57.39;100652.53;5010849;28;4169;-50
2022/09/10 00:37:59;;;;;;;;;;;;;;;22.56;57.38;100652.53;5011889;28;4357;-49
2022/09/10 00:40:26;;;;;;;;;;;;;;;22.55;57.37;100658.97;5011164;28;5422;-49
2022/09/10 00:42:52;;;;;;;;;;;;;;;22.54;57.02;100655.34;5016611;28;4225;-52
2022/09/10 00:45:23;;;;;;;;;;;;;;;22.55;57.47;100656.09;5012920;28;4503;-52
2022/09/10 00:47:50;;;;;;;;;;;;;;;22.54;57.04;100655.34;5023845;28;5515;-50
2022/09/10 00:50:20;;;;;;;;;;;;;;;22.53;57.36;100653.84;5007791;28;4182;-54
2022/09/10 00:52:47;;;;;;;;;;;;;;;22.53;57.07;100648.09;5017374;28;4833;-50
2022/09/10 00:55:14;;;;;;;;;;;;;;;22.52;57.04;100649.50;5011112;28;5467;-52
2022/09/10 00:57:40;;;;;;;;;;;;;;;22.52;57.27;100645.88;5024038;28;4240;-49
2022/09/10 01:00:08;;;;;;;;;;;;;;;22.50;57.07;100658.09;5033068;28;5478;-50
2022/09/10 01:02:35;;;;;;;;;;;;;;;22.52;57.20;100663.22;5046202;28;4290;-51
2022/09/10 01:05:01;;;;;;;;;;;;;;;22.51;57.25;100667.47;5033185;28;4143;-49
2022/09/10 01:07:28;;;;;;;;;;;;;;;22.49;57.03;100665.25;5032039;28;4182;-51
2022/09/10 01:09:58;;;;;;;;;;;;;;;22.51;57.05;100667.47;5046480;28;5280;-49
2022/09/10 01:12:24;;;;;;;;;;;;;;;22.49;56.93;100671.03;5047783;28;4230;-51
2022/09/10 01:15:12;;;;;;;;;;;;;;;22.49;57.33;100647.94;5032959;28;4191;-50
2022/09/10 01:17:43;;;;;;;;;;;;;;;22.48;56.79;100658.03;5012923;28;5361;-51
2022/09/10 01:20:29;;;;;;;;;;;;;;;22.49;56.90;100655.88;5003572;28;4249;-52
2022/09/10 01:23:16;;;;;;;;;;;;;;;22.48;56.90;100652.25;5007841;28;5576;-51
2022/09/10 01:26:02;;;;;;;;;;;;;;;22.49;56.96;100659.47;5015352;28;4318;-52
2022/09/10 01:28:38;;;;;;;;;;;;;;;22.47;57.07;100661.56;5017085;28;4173;-51
2022/09/10 01:31:11;;;;;;;;;;;;;;;22.46;57.29;100660.09;5007243;28;5293;-51
2022/09/10 01:33:41;;;;;;;;;;;;;;;22.45;56.92;100664.38;5017321;28;4067;-51
2022/09/10 01:36:15;;;;;;;;;;;;;;;22.44;56.83;100663.66;5008957;28;4145;-52
2022/09/10 01:38:41;;;;;;;;;;;;;;;22.44;57.04;100672.31;5029399;28;4256;-48
2022/09/10 01:41:09;;;;;;;;;;;;;;;22.45;57.01;100659.38;5012503;28;5112;-48
2022/09/10 01:43:40;;;;;;;;;;;;;;;22.44;57.22;100665.78;5012960;28;4832;-52
2022/09/10 01:46:12;;;;;;;;;;;;;;;22.43;56.85;100667.94;5026201;28;4218;-51
2022/09/10 01:48:56;;;;;;;;;;;;;;;22.42;56.84;100666.47;5020339;28;4243;-52
2022/09/10 01:51:27;;;;;;;;;;;;;;;22.42;56.86;100672.22;5034420;28;5484;-49
2022/09/10 01:53:59;;;;;;;;;;;;;;;22.42;56.80;100666.47;5038516;28;4206;-49
2022/09/10 01:56:44;;;;;;;;;;;;;;;22.41;56.99;100670.75;5047826;28;4912;-48
2022/09/10 01:59:13;;;;;;;;;;;;;;;22.42;56.93;100671.50;5048323;28;4349;-51
2022/09/10 02:01:43;;;;;;;;;;;;;;;22.42;56.75;100666.47;5034044;28;4189;-52
2022/09/10 02:04:13;;;;;;;;;;;;;;;22.42;56.86;100659.94;5032191;28;4208;-48
2022/09/10 02:06:41;;;;;;;;;;;;;;;22.44;56.61;100663.66;5030008;28;4026;-53
2022/09/10 02:09:09;;;;;;;;;;;;;;;22.45;56.69;100667.25;5031410;28;5236;-49
2022/09/10 02:12:03;;;;;;;;;;;;;;;22.43;56.50;100662.19;5036774;28;4147;-48
2022/09/10 02:14:46;;;;;;;;;;;;;;;22.45;56.44;100668.03;5037059;28;5074;-50
2022/09/10 02:17:24;;;;;;;;;;;;;;;22.44;56.32;100668.69;5033932;28;4216;-53
2022/09/10 02:19:50;;;;;;;;;;;;;;;22.45;56.76;100673.03;5050437;28;5230;-52
2022/09/10 02:22:17;;;;;;;;;;;;;;;22.43;56.49;100673.72;5033189;28;5383;-50
2022/09/10 02:24:43;;;;;;;;;;;;;;;22.44;56.43;100671.56;5038215;28;4209;-51
2022/09/10 02:27:10;;;;;;;;;;;;;;;22.43;56.63;100678.75;5050288;28;5565;-53
2022/09/10 02:29:37;;;;;;;;;;;;;;;22.43;56.65;100673.00;5036940;28;4218;-51
2022/09/10 02:32:05;;;;;;;;;;;;;;;22.42;56.71;100678.00;5050771;28;4387;-49
2022/09/10 02:34:33;;;;;;;;;;;;;;;22.43;56.58;100673.00;5052384;28;4335;-53
2022/09/10 02:36:59;;;;;;;;;;;;;;;22.41;56.46;100676.53;5034490;28;4293;-49
2022/09/10 02:39:25;;;;;;;;;;;;;;;22.42;56.51;100680.88;5026391;28;4225;-52
2022/09/10 02:41:52;;;;;;;;;;;;;;;22.41;56.71;100676.53;5046077;28;5295;-50
2022/09/10 02:44:21;;;;;;;;;;;;;;;22.40;56.38;100683.69;5037175;28;5367;-52
2022/09/10 02:46:47;;;;;;;;;;;;;;;22.39;56.33;100685.13;5034414;28;4338;-52
2022/09/10 02:49:13;;;;;;;;;;;;;;;22.38;56.73;100684.38;5031788;28;4238;-49
2022/09/10 02:51:41;;;;;;;;;;;;;;;22.39;56.29;100690.88;5047437;28;4560;-51
2022/09/10 02:54:07;;;;;;;;;;;;;;;22.38;56.33;100689.41;5035441;28;4184;-50
2022/09/10 02:56:34;;;;;;;;;;;;;;;22.37;56.58;100685.78;5035495;28;4102;-52
2022/09/10 02:59:01;;;;;;;;;;;;;;;22.36;56.24;100675.66;5042549;28;4239;-52
2022/09/10 03:01:29;;;;;;;;;;;;;;;22.38;56.42;100680.75;5034444;28;4193;-53
2022/09/10 03:03:59;;;;;;;;;;;;;;;22.37;56.20;100687.91;5035951;28;4105;-50
2022/09/10 03:06:28;;;;;;;;;;;;;;;22.35;56.43;100684.97;5031574;28;5579;-50
2022/09/10 03:08:54;;;;;;;;;;;;;;;22.35;56.34;100688.56;5032857;28;4736;-49
2022/09/10 03:11:23;;;;;;;;;;;;;;;22.35;56.24;100685.69;5039558;28;5348;-53
2022/09/10 03:13:51;;;;;;;;;;;;;;;22.36;56.29;100675.66;5042341;28;4844;-49
2022/09/10 03:16:17;;;;;;;;;;;;;;;22.37;56.27;100685.03;5035671;28;5395;-49
2022/09/10 03:18:43;;;;;;;;;;;;;;;22.37;56.29;100687.91;5034403;28;4306;-55
2022/09/10 03:21:12;;;;;;;;;;;;;;;22.35;56.18;100684.97;5033572;28;4161;-51
2022/09/10 03:23:39;;;;;;;;;;;;;;;22.35;55.96;100684.97;5034521;28;4221;-52
2022/09/10 03:26:05;;;;;;;;;;;;;;;22.33;56.07;100673.34;5015260;28;4645;-51
2022/09/10 03:28:32;;;;;;;;;;;;;;;22.37;56.18;100667.72;5044295;28;5303;-50
2022/09/10 03:31:01;;;;;;;;;;;;;;;22.37;56.29;100685.03;5030669;28;5319;-51
2022/09/10 03:33:56;;;;;;;;;;;;;;;22.40;56.33;100675.03;5020400;28;4191;-54
2022/09/10 03:36:22;;;;;;;;;;;;;;;22.37;56.31;100682.88;5041334;28;4226;-51
2022/09/10 03:38:49;;;;;;;;;;;;;;;22.36;56.74;100669.88;5016361;28;4130;-53
2022/09/10 03:41:15;;;;;;;;;;;;;;;22.37;56.58;100682.16;5025252;28;4259;-51
2022/09/10 03:43:42;;;;;;;;;;;;;;;22.35;57.02;100679.19;5021944;28;4224;-50
2022/09/10 03:46:10;;;;;;;;;;;;;;;22.37;56.67;100679.25;5026558;28;5427;-52
2022/09/10 03:48:39;;;;;;;;;;;;;;;22.38;56.81;100677.88;5014436;28;4294;-49
2022/09/10 03:51:08;;;;;;;;;;;;;;;22.37;56.75;100670.63;5013900;28;4197;-50
2022/09/10 03:53:34;;;;;;;;;;;;;;;22.37;56.92;100670.63;5016259;28;4197;-51
2022/09/10 03:56:02;;;;;;;;;;;;;;;22.37;56.86;100670.63;5025059;28;4304;-49
2022/09/10 03:58:28;;;;;;;;;;;;;;;22.36;56.98;100669.16;5015709;28;4329;-54
2022/09/10 04:00:54;;;;;;;;;;;;;;;22.37;56.98;100661.97;5015896;28;4308;-51
2022/09/10 04:03:21;;;;;;;;;;;;;;;22.36;57.08;100669.88;5013058;28;5585;-50
2022/09/10 04:05:47;;;;;;;;;;;;;;;22.36;56.93;100663.38;5043443;28;4146;-51
2022/09/10 04:08:14;;;;;;;;;;;;;;;22.36;56.96;100666.25;5029084;28;4505;-49
2022/09/10 04:10:40;;;;;;;;;;;;;;;22.35;56.92;100661.88;5013727;28;6775;-51
2022/09/10 04:13:07;;;;;;;;;;;;;;;22.35;56.95;100653.22;5013363;28;5410;-48
2022/09/10 04:15:36;;;;;;;;;;;;;;;22.35;56.93;100668.38;5018535;28;4670;-50
2022/09/10 04:18:02;;;;;;;;;;;;;;;22.35;57.22;100667.66;5029047;28;4177;-53
2022/09/10 04:20:29;;;;;;;;;;;;;;;22.35;56.89;100661.88;5013288;28;5030;-50
2022/09/10 04:23:04;;;;;;;;;;;;;;;22.35;57.00;100664.78;5019275;28;5486;-48
2022/09/10 04:25:32;;;;;;;;;;;;;;;22.34;57.23;100664.03;5029284;28;4546;-48
2022/09/10 04:28:00;;;;;;;;;;;;;;;22.34;57.08;100663.31;5029343;28;5243;-49
2022/09/10 04:30:28;;;;;;;;;;;;;;;22.33;57.10;100670.47;5031641;28;4094;-52
2022/09/10 04:32:54;;;;;;;;;;;;;;;22.34;57.12;100666.19;5014810;28;5539;-50
2022/09/10 04:35:21;;;;;;;;;;;;;;;22.33;57.18;100670.47;5045781;28;4160;-53
2022/09/10 04:37:47;;;;;;;;;;;;;;;22.34;57.40;100671.97;5012899;28;4173;-53
2022/09/10 04:40:14;;;;;;;;;;;;;;;22.32;57.01;100669.72;5048080;28;5502;-51
2022/09/10 04:42:40;;;;;;;;;;;;;;;22.32;57.23;100674.78;5035851;28;4053;-48
2022/09/10 04:45:07;;;;;;;;;;;;;;;22.33;57.02;100676.22;5035056;28;4548;-49
2022/09/10 04:47:34;;;;;;;;;;;;;;;22.33;57.16;100682.00;5038808;28;4104;-51
2022/09/10 04:50:02;;;;;;;;;;;;;;;22.32;57.08;100686.31;5048752;28;5455;-49
2022/09/10 04:52:28;;;;;;;;;;;;;;;22.32;57.22;100683.41;5029152;28;4732;-49
2022/09/10 04:54:55;;;;;;;;;;;;;;;22.31;57.15;100681.94;5049760;28;4243;-50
2022/09/10 04:57:24;;;;;;;;;;;;;;;22.32;57.41;100683.41;5037490;28;4689;-50
2022/09/10 04:59:54;;;;;;;;;;;;;;;22.31;57.19;100687.69;5047626;28;4328;-48
2022/09/10 05:02:21;;;;;;;;;;;;;;;22.32;56.97;100697.84;5029165;28;4295;-49
2022/09/10 05:04:49;;;;;;;;;;;;;;;22.31;57.02;100687.69;5050178;28;4411;-51
2022/09/10 05:07:16;;;;;;;;;;;;;;;22.31;56.80;100691.34;5036402;28;4166;-49
2022/09/10 05:09:42;;;;;;;;;;;;;;;22.33;57.00;100693.53;5048078;28;4136;-51
2022/09/10 05:12:14;;;;;;;;;;;;;;;22.31;57.05;100694.22;5042410;28;4169;-51
2022/09/10 05:14:41;;;;;;;;;;;;;;;22.30;57.15;100684.09;5031225;28;4090;-51
2022/09/10 05:17:07;;;;;;;;;;;;;;;22.30;57.17;100694.88;5027287;28;5457;-49
2022/09/10 05:19:34;;;;;;;;;;;;;;;22.30;57.10;100694.88;5049140;28;4019;-50
2022/09/10 05:22:03;;;;;;;;;;;;;;;22.31;57.13;100690.59;5044251;28;4014;-51
2022/09/10 05:24:33;;;;;;;;;;;;;;;22.30;56.82;100680.47;5050698;28;5747;-50
2022/09/10 05:27:01;;;;;;;;;;;;;;;22.30;56.92;100683.34;5050049;28;4170;-51
2022/09/10 05:29:28;;;;;;;;;;;;;;;22.30;56.80;100683.34;5032305;28;4035;-52
2022/09/10 05:31:54;;;;;;;;;;;;;;;22.29;56.95;100682.63;5047933;28;5490;-54
2022/09/10 05:34:23;;;;;;;;;;;;;;;22.30;57.29;100677.56;5040371;28;4591;-50
2022/09/10 05:36:51;;;;;;;;;;;;;;;22.29;56.85;100682.63;5049275;28;5301;-52
2022/09/10 05:39:17;;;;;;;;;;;;;;;22.30;57.08;100686.22;5031732;28;4654;-51
2022/09/10 05:41:45;;;;;;;;;;;;;;;22.29;56.97;100687.66;5042733;28;4204;-50
2022/09/10 05:44:13;;;;;;;;;;;;;;;22.29;57.21;100681.88;5050304;28;4176;-49
2022/09/10 05:46:40;;;;;;;;;;;;;;;22.29;56.89;100681.88;5050504;28;4183;-53
2022/09/10 05:49:11;;;;;;;;;;;;;;;22.27;57.02;100685.41;5038075;28;5576;-51
2022/09/10 05:51:38;;;;;;;;;;;;;;;22.29;57.17;100679.00;5055547;28;4124;-52
2022/09/10 05:54:06;;;;;;;;;;;;;;;22.27;57.01;100684.69;5054237;28;4339;-53
2022/09/10 05:56:33;;;;;;;;;;;;;;;22.28;57.01;100675.34;5053685;28;4215;-49
2022/09/10 05:59:02;;;;;;;;;;;;;;;22.29;57.34;100687.66;5054514;28;4613;-53
2022/09/10 06:01:30;;;;;;;;;;;;;;;22.27;57.15;100690.47;5055183;28;4360;-52
2022/09/10 06:03:58;;;;;;;;;;;;;;;22.25;57.40;100694.00;5035478;28;5474;-49
2022/09/10 06:06:26;;;;;;;;;;;;;;;22.27;57.29;100696.97;5035330;28;4098;-51
2022/09/10 06:09:01;;;;;;;;;;;;;;;22.28;56.97;100697.69;5049879;28;5769;-50
2022/09/10 06:12:05;;;;;;;;;;;;;;;22.27;57.32;100702.00;4993668;28;6351;-49
2022/09/10 06:14:32;;;;;;;;;;;;;;;22.25;57.80;100702.66;5000975;28;4163;-53
2022/09/10 06:16:58;;;;;;;;;;;;;;;22.24;58.00;100704.06;5015335;28;4181;-53
2022/09/10 06:19:28;;;;;;;;;;;;;;;22.23;57.81;100713.38;5029571;28;5736;-52
2022/09/10 06:21:54;;;;;;;;;;;;;;;22.25;57.80;100716.34;5012734;28;4111;-52
2022/09/10 06:24:23;;;;;;;;;;;;;;;22.18;57.63;100713.19;5044570;28;4544;-51
2022/09/10 06:26:53;;;;;;;;;;;;;;;22.23;57.65;100719.16;5036945;28;4697;-48
2022/09/10 06:29:21;;;;;;;;;;;;;;;22.25;57.55;100710.56;5046965;28;6463;-49
2022/09/10 06:31:48;;;;;;;;;;;;;;;22.21;57.42;100705.38;5052507;28;4602;-50
2022/09/10 06:34:17;;;;;;;;;;;;;;;22.18;57.24;100712.47;5020492;28;5714;-48
2022/09/10 06:36:48;;;;;;;;;;;;;;;22.22;57.25;100709.00;5047687;28;3998;-51
2022/09/10 06:39:15;;;;;;;;;;;;;;;22.25;56.86;100710.56;5035738;28;7223;-52
2022/09/10 06:41:47;;;;;;;;;;;;;;;21.97;56.91;100710.97;5050529;28;4117;-49
2022/09/10 06:44:33;;;;;;;;;;;;;;;22.03;56.95;100711.19;5029287;28;4185;-52
2022/09/10 06:47:10;;;;;;;;;;;;;;;22.12;57.03;100715.13;5050566;28;4176;-50
2022/09/10 06:49:57;;;;;;;;;;;;;;;22.15;56.87;100713.78;5050148;28;4211;-50
2022/09/10 06:52:23;;;;;;;;;;;;;;;22.16;56.71;100721.78;5033852;28;5559;-50
2022/09/10 06:54:58;;;;;;;;;;;;;;;22.17;56.88;100710.97;5046918;28;5629;-52
2022/09/10 06:57:31;;;;;;;;;;;;;;;22.18;56.62;100724.00;5052247;28;4549;-57
2022/09/10 06:59:58;;;;;;;;;;;;;;;22.05;56.24;100716.31;5035294;28;4545;-50
2022/09/10 07:02:24;;;;;;;;;;;;;;;21.84;56.43;100714.81;5027508;28;4056;-50
2022/09/10 07:04:52;;;;;;;;;;;;;;;21.97;56.59;100710.97;5044084;28;5383;-57
2022/09/10 07:07:19;;;;;;;;;;;;;;;22.09;56.57;100725.09;5049178;28;4657;-60
2022/09/10 07:09:45;;;;;;;;;;;;;;;22.15;56.34;100725.31;5047908;28;4561;-49
2022/09/10 07:12:15;;;;;;;;;;;;;;;22.17;56.40;100725.38;5034090;28;5649;-55
2022/09/10 07:14:42;;;;;;;;;;;;;;;22.18;56.14;100724.75;5033117;28;4164;-55
2022/09/10 07:17:10;;;;;;;;;;;;;;;22.23;56.06;100722.75;5048317;28;4717;-57
2022/09/10 07:19:37;;;;;;;;;;;;;;;22.22;56.30;100726.31;5045796;28;4749;-51
2022/09/10 07:22:10;;;;;;;;;;;;;;;22.25;56.24;100722.13;5017348;28;5259;-53
2022/09/10 07:24:37;;;;;;;;;;;;;;;22.24;56.35;100726.38;5030905;28;5474;-55
2022/09/10 07:27:09;;;;;;;;;;;;;;;22.23;56.50;100719.16;5031134;28;4659;-51
2022/09/10 07:29:38;;;;;;;;;;;;;;;22.26;56.49;100726.47;5030511;28;5530;-55
2022/09/10 07:32:09;;;;;;;;;;;;;;;22.18;56.65;100718.97;5021430;28;5781;-54
2022/09/10 07:34:39;;;;;;;;;;;;;;;22.18;56.65;100721.84;5028465;28;4048;-56
2022/09/10 07:37:06;;;;;;;;;;;;;;;22.20;56.41;100720.47;5013894;28;4798;-53
2022/09/10 07:39:32;;;;;;;;;;;;;;;22.25;56.56;100727.88;5045313;28;4043;-53
2022/09/10 07:41:59;;;;;;;;;;;;;;;22.23;56.48;100719.16;5030752;28;5310;-55
2022/09/10 07:44:28;;;;;;;;;;;;;;;22.20;56.72;100714.69;5030147;28;4180;-55
2022/09/10 07:47:00;;;;;;;;;;;;;;;22.11;56.78;100717.25;5024810;28;4224;-57
2022/09/10 07:49:26;;;;;;;;;;;;;;;21.97;56.53;100728.28;5012370;28;4615;-56
2022/09/10 07:51:53;;;;;;;;;;;;;;;22.03;56.81;100724.88;5020161;28;4615;-57
2022/09/10 07:54:28;;;;;;;;;;;;;;;22.12;56.52;100721.63;5015967;28;4230;-55
2022/09/10 07:56:55;;;;;;;;;;;;;;;22.17;56.13;100723.28;5031012;28;4343;-58
2022/09/10 07:59:22;;;;;;;;;;;;;;;22.14;56.44;100718.81;5033219;28;4209;-57
2022/09/10 08:01:52;;;;;;;;;;;;;;;22.22;56.40;100734.97;5027023;28;4198;-57
2022/09/10 08:04:19;;;;;;;;;;;;;;;22.23;56.44;100736.47;5009177;28;5692;-57
2022/09/10 08:06:45;;;;;;;;;;;;;;;22.23;56.10;100731.41;5032673;28;4560;-55
2022/09/10 08:09:13;;;;;;;;;;;;;;;22.24;56.40;100729.28;5015384;28;4710;-57
2022/09/10 08:11:47;;;;;;;;;;;;;;;22.26;56.29;100738.72;5027707;28;4223;-57
2022/09/10 08:14:15;;;;;;;;;;;;;;;22.24;56.11;100738.69;5021433;28;4241;-57
2022/09/10 08:16:45;;;;;;;;;;;;;;;22.26;56.12;100743.78;5017347;28;5610;-57
2022/09/10 08:19:17;;;;;;;;;;;;;;;22.25;56.42;100745.91;5029527;28;5169;-58
2022/09/10 08:21:44;;;;;;;;;;;;;;;22.27;56.36;100748.16;5029437;28;4115;-57
2022/09/10 08:24:13;;;;;;;;;;;;;;;22.28;56.17;100740.97;5030648;28;3984;-57
2022/09/10 08:26:42;;;;;;;;;;;;;;;22.27;56.40;100748.16;5027942;28;5338;-57
2022/09/10 08:29:08;;;;;;;;;;;;;;;22.24;56.22;100740.81;5013835;28;4209;-57
2022/09/10 08:31:35;;;;;;;;;;;;;;;22.26;56.64;100753.16;5016340;28;4216;-57
2022/09/10 08:34:19;;;;;;;;;;;;;;;22.30;56.39;100746.81;5045325;28;4266;-57
2022/09/10 08:36:52;;;;;;;;;;;;;;;22.31;56.26;100748.28;5024750;28;5293;-57
2022/09/10 08:39:18;;;;;;;;;;;;;;;22.32;56.16;100744.00;5031955;28;4529;-57
2022/09/10 08:41:51;;;;;;;;;;;;;;;22.29;56.34;100751.84;5035405;28;4154;-57
2022/09/10 08:44:24;;;;;;;;;;;;;;;22.28;56.01;100743.84;5050115;28;4052;-58
2022/09/10 08:46:54;;;;;;;;;;;;;;;22.27;56.19;100753.91;5038495;28;4591;-57
2022/09/10 08:49:39;;;;;;;;;;;;;;;22.27;56.28;100759.69;5027401;28;4559;-58
2022/09/10 08:52:13;;;;;;;;;;;;;;;22.29;56.15;100751.09;5029803;28;4172;-58
2022/09/10 08:54:42;;;;;;;;;;;;;;;22.29;56.42;100751.09;5028103;28;4177;-58
2022/09/10 08:57:20;;;;;;;;;;;;;;;22.30;56.06;100752.56;5024438;28;5460;-57
2022/09/10 08:59:46;;;;;;;;;;;;;;;22.33;56.04;100757.00;5027225;28;4047;-57
2022/09/10 09:02:16;;;;;;;;;;;;;;;22.31;56.40;100742.50;5030550;28;4598;-57
2022/09/10 09:05:24;;;;;;;;;;;;;;;22.33;56.24;100751.22;5034832;28;4014;-57
2022/09/10 09:07:53;;;;;;;;;;;;;;;22.35;56.23;100748.44;5033651;28;6347;-57
2022/09/10 09:10:31;;;;;;;;;;;;;;;22.37;56.28;100762.94;5029373;28;5406;-58
2022/09/10 09:13:16;;;;;;;;;;;;;;;22.35;56.15;100757.09;5044231;28;4264;-57
2022/09/10 09:15:48;;;;;;;;;;;;;;;22.36;56.07;100755.69;5047311;28;4641;-57
2022/09/10 09:18:20;;;;;;;;;;;;;;;22.37;56.25;100762.94;5049754;28;4529;-57
2022/09/10 09:20:47;;;;;;;;;;;;;;;22.37;56.03;100752.13;5035805;28;4163;-58
2022/09/10 09:23:20;;;;;;;;;;;;;;;22.36;56.05;100761.47;5041336;28;5274;-57
2022/09/10 09:25:47;;;;;;;;;;;;;;;22.36;56.38;100747.03;5033543;28;4662;-57
2022/09/10 09:28:27;;;;;;;;;;;;;;;22.37;56.24;100754.28;5032692;28;5245;-57
2022/09/10 09:30:54;;;;;;;;;;;;;;;22.35;56.27;100754.19;5033132;28;4701;-58
2022/09/10 09:33:22;;;;;;;;;;;;;;;22.32;56.04;100755.53;5042382;28;4241;-56
2022/09/10 09:35:53;;;;;;;;;;;;;;;22.36;56.15;100744.16;5034051;28;5469;-57
2022/09/10 09:38:27;;;;;;;;;;;;;;;22.37;56.28;100757.16;5035319;28;4421;-65
2022/09/10 09:41:06;;;;;;;;;;;;;;;22.39;56.57;100748.59;5031700;28;4122;-58
2022/09/10 09:43:37;;;;;;;;;;;;;;;22.41;56.24;100734.22;5047476;28;5119;-58
2022/09/10 09:46:11;;;;;;;;;;;;;;;22.41;56.38;100754.44;5049520;28;4097;-58
2022/09/10 09:48:38;;;;;;;;;;;;;;;22.42;56.40;100747.25;5049740;28;4518;-58
2022/09/10 09:51:06;;;;;;;;;;;;;;;22.43;56.36;100753.78;5047051;28;4164;-57
2022/09/10 09:53:32;;;;;;;;;;;;;;;22.43;56.53;100748.75;5050895;28;4031;-58
2022/09/10 09:55:59;;;;;;;;;;;;;;;22.43;56.43;100745.84;5036365;28;4376;-57
2022/09/10 09:58:26;;;;;;;;;;;;;;;22.45;56.60;100745.94;5035090;28;4087;-58
2022/09/10 10:00:53;;;;;;;;;;;;;;;22.45;56.41;100745.94;5034576;28;5280;-57
2022/09/10 10:03:39;;;;;;;;;;;;;;;22.46;56.55;100741.63;5032919;28;4050;-58
2022/09/10 10:06:07;;;;;;;;;;;;;;;22.48;56.45;100738.06;5024928;28;4569;-57
2022/09/10 10:08:43;;;;;;;;;;;;;;;22.48;56.65;100744.59;5033561;28;4290;-58
2022/09/10 10:11:11;;;;;;;;;;;;;;;22.48;56.42;100743.84;5033094;28;5629;-58
2022/09/10 10:13:37;;;;;;;;;;;;;;;22.50;56.57;100741.78;5047380;28;4177;-58
2022/09/10 10:16:15;;;;;;;;;;;;;;;22.51;56.70;100742.50;5034178;28;5722;-58
2022/09/10 10:18:41;;;;;;;;;;;;;;;22.51;56.65;100736.72;5034352;28;4479;-58
2022/09/10 10:21:18;;;;;;;;;;;;;;;22.51;56.89;100749.00;5035609;28;5651;-57
2022/09/10 10:23:44;;;;;;;;;;;;;;;22.51;56.89;100746.13;5031216;28;4175;-58
2022/09/10 10:26:17;;;;;;;;;;;;;;;22.52;57.32;100738.97;5033002;28;4190;-58
2022/09/10 10:28:54;;;;;;;;;;;;;;;22.53;57.45;100742.59;5029499;28;4181;-58
2022/09/10 10:31:20;;;;;;;;;;;;;;;22.53;57.46;100739.69;5049612;28;5458;-58
2022/09/10 10:34:07;;;;;;;;;;;;;;;22.54;57.45;100738.28;5049721;28;4223;-58
2022/09/10 10:36:38;;;;;;;;;;;;;;;22.56;57.67;100730.44;5035472;28;4200;-57
2022/09/10 10:39:09;;;;;;;;;;;;;;;22.57;57.75;100729.03;5050791;28;4168;-58
2022/09/10 10:41:39;;;;;;;;;;;;;;;22.57;58.11;100729.03;5048019;28;4116;-57
2022/09/10 10:44:15;;;;;;;;;;;;;;;22.58;58.06;100730.50;5050345;28;4271;-58
2022/09/10 10:46:54;;;;;;;;;;;;;;;22.61;58.29;100727.69;5055056;28;5227;-58
2022/09/10 10:49:39;;;;;;;;;;;;;;;22.62;58.20;100723.41;5050020;28;5466;-57
2022/09/10 10:52:12;;;;;;;;;;;;;;;22.62;58.77;100727.03;5019144;28;4546;-57
2022/09/10 10:54:53;;;;;;;;;;;;;;;22.64;59.31;100723.47;5019696;28;5319;-57
2022/09/10 10:57:27;;;;;;;;;;;;;;;22.65;59.81;100716.28;5032274;28;4456;-57
2022/09/10 10:59:55;;;;;;;;;;;;;;;22.65;59.87;100717.03;5032002;28;4589;-58
2022/09/10 11:02:24;;;;;;;;;;;;;;;22.68;60.38;100723.63;5050460;28;4091;-58
2022/09/10 11:04:52;;;;;;;;;;;;;;;22.70;60.47;100723.69;5018398;28;4069;-58
2022/09/10 11:07:26;;;;;;;;;;;;;;;22.69;60.70;100713.56;5021090;28;4212;-58
2022/09/10 11:10:11;;;;;;;;;;;;;;;22.71;60.62;100722.28;5025890;28;4563;-58
2022/09/10 11:12:39;;;;;;;;;;;;;;;22.70;60.23;100717.91;5007281;28;4487;-56
2022/09/10 11:15:27;;;;;;;;;;;;;;;22.70;60.27;100723.69;5011045;28;4129;-56
2022/09/10 11:18:05;;;;;;;;;;;;;;;22.74;58.77;100720.94;5026182;28;4153;-58
2022/09/10 11:20:34;;;;;;;;;;;;;;;22.74;57.91;100723.81;5036430;28;4070;-58
2022/09/10 11:23:20;;;;;;;;;;;;;;;22.80;58.26;100709.59;5049258;28;4674;-56
2022/09/10 11:25:59;;;;;;;;;;;;;;;22.78;58.26;100712.41;5026599;28;4639;-57
2022/09/10 11:28:30;;;;;;;;;;;;;;;22.76;58.01;100718.13;5049936;28;4112;-56
2022/09/10 11:30:58;;;;;;;;;;;;;;;22.78;57.94;100718.19;5016650;28;4153;-57
2022/09/10 11:33:27;;;;;;;;;;;;;;;22.76;57.73;100715.22;5017539;28;5822;-56
2022/09/10 11:35:58;;;;;;;;;;;;;;;22.77;57.86;100716.72;5018496;28;4404;-56
2022/09/10 11:38:35;;;;;;;;;;;;;;;22.77;57.37;100710.94;5017686;28;4117;-55
2022/09/10 11:41:10;;;;;;;;;;;;;;;22.79;57.41;100708.13;5043944;28;5562;-56
2022/09/10 11:44:06;;;;;;;;;;;;;;;22.80;57.41;100709.59;5014623;28;4176;-56
2022/09/10 11:46:34;;;;;;;;;;;;;;;22.81;57.52;100711.06;4985433;28;5367;-56
2022/09/10 11:49:02;;;;;;;;;;;;;;;22.82;57.35;100709.69;5014360;28;4182;-56
2022/09/10 11:51:29;;;;;;;;;;;;;;;22.85;57.60;100710.47;5047856;28;5480;-55
2022/09/10 11:53:56;;;;;;;;;;;;;;;22.83;57.59;100708.25;5016890;28;5291;-56
2022/09/10 11:56:41;;;;;;;;;;;;;;;22.85;57.23;100696.78;5030032;28;4402;-56
2022/09/10 11:59:27;;;;;;;;;;;;;;;22.84;57.52;100698.19;5014729;28;6336;-56
2022/09/10 12:01:56;;;;;;;;;;;;;;;22.86;57.39;100692.50;5029255;28;4224;-56
2022/09/10 12:04:33;;;;;;;;;;;;;;;22.87;57.15;100696.84;5027452;28;4395;-56
2022/09/10 12:07:13;;;;;;;;;;;;;;;22.86;57.44;100701.16;5026274;28;4599;-56
2022/09/10 12:09:53;;;;;;;;;;;;;;;22.85;57.19;100693.91;5022125;28;4317;-56
2022/09/10 12:12:30;;;;;;;;;;;;;;;22.86;57.26;100688.84;5043021;28;4134;-57
2022/09/10 12:14:56;;;;;;;;;;;;;;;22.82;57.19;100685.84;5032834;28;6411;-56
2022/09/10 12:17:27;;;;;;;;;;;;;;;22.84;57.21;100689.53;5032184;28;4007;-57
2022/09/10 12:19:54;;;;;;;;;;;;;;;22.83;56.86;100688.03;5027361;28;4227;-58
2022/09/10 12:22:20;;;;;;;;;;;;;;;22.84;57.06;100691.66;5044888;28;4200;-56
2022/09/10 12:25:03;;;;;;;;;;;;;;;22.84;57.08;100686.66;5017783;28;4072;-56
2022/09/10 12:27:49;;;;;;;;;;;;;;;22.85;56.90;100684.50;5016046;28;4310;-51
2022/09/10 12:30:26;;;;;;;;;;;;;;;22.88;56.54;100686.75;5030257;28;4128;-56
2022/09/10 12:32:52;;;;;;;;;;;;;;;22.89;56.34;100694.03;5028099;28;5321;-56
2022/09/10 12:35:29;;;;;;;;;;;;;;;22.89;56.45;100687.53;5043331;28;4070;-56
2022/09/10 12:38:14;;;;;;;;;;;;;;;22.91;56.30;100691.22;5028256;28;4614;-56
2022/09/10 12:40:44;;;;;;;;;;;;;;;22.90;56.63;100689.72;5020978;28;4206;-56
2022/09/10 12:43:42;;;;;;;;;;;;;;;22.86;55.81;100686.72;5025323;28;4048;-55
2022/09/10 12:46:08;;;;;;;;;;;;;;;22.84;55.94;100677.22;5024299;28;4173;-56
2022/09/10 12:48:44;;;;;;;;;;;;;;;22.86;56.01;100678.06;5022139;28;4099;-57
2022/09/10 12:51:22;;;;;;;;;;;;;;;22.89;55.95;100678.88;5039096;28;4567;-56
2022/09/10 12:54:01;;;;;;;;;;;;;;;22.87;55.70;100673.03;5040097;28;4225;-57
2022/09/10 12:56:46;;;;;;;;;;;;;;;22.87;55.82;100673.03;5022622;28;4160;-57
2022/09/10 12:59:13;;;;;;;;;;;;;;;22.86;55.64;100665.75;5027607;28;4013;-57
2022/09/10 13:01:40;;;;;;;;;;;;;;;22.85;55.80;100670.06;5025159;28;4614;-50
2022/09/10 13:04:25;;;;;;;;;;;;;;;22.82;54.96;100660.59;5017391;28;3998;-47
2022/09/10 13:06:52;;;;;;;;;;;;;;;22.87;55.36;100662.22;5000638;28;4122;-50